ADDS METAR Data INFO
IDs: Format: Raw Decoded Include TAF

Data at: 2341 UTC 26 May 2018

Region: TOP
KATL 262252Z 20006KT 10SM FEW045TCU FEW075 SCT110 BKN250 28/19 A2990 RMK AO2 LTG DSNT SE SLP115 CB DSNT N & SE & SW TCU N & S & NW & DSNT E-SE & W T02780189

KBOS 262254Z 06013KT 10SM SCT075 BKN180 OVC260 19/13 A2982 RMK AO2 WSHFT 2142 SLP099 CB DSNT N MOV SE T01940133

KBWI 262254Z 27003KT 10SM -RA SCT055CB BKN120 OVC180 24/23 A2983 RMK AO2 SLP100 CB E MOV SE P0001 T02440228

KCLE 262251Z 00000KT 8SM -RA FEW095 BKN120 BKN200 21/18 A2982 RMK AO2 LTG DSNT SE-SW RAB2155 TSE48 SLP095 P0003 T02110178 $

KCLT 262252Z 21008KT 10SM SCT035TCU BKN100 BKN250 28/23 A2990 RMK RAE15 CB DSNT N TCU SE SLP117 P0004 T02800230

KCVG 262333Z 23004KT 10SM SCT040 BKN210 26/19 A2979 RMK AO2 LTG DSNT E-SW TSB14E31 TS MOV NE CB DSNT SE W T02560194

KDCA 262310Z 21013G19KT 10SM SCT041 BKN120 OVC150 29/21 A2984 RMK AO2 LTG DSNT N CB DSNT S-W T02890211

KDEN 262253Z 17017KT 10SM FEW100 BKN210 32/M03 A2981 RMK AO2 PK WND 17031/2205 WSHFT 2144 SLP007 T03171033

KDFW 262253Z 18007KT 10SM FEW060 FEW300 36/18 A2972 RMK AO2 SLP053 TCU DSNT NE-E T03560178

KDTW 262253Z 15009KT 10SM FEW065 SCT160 25/17 A2979 RMK AO2 SLP085 T02500167

KEWR 262251Z 24007KT 10SM FEW060 SCT100 SCT250 30/17 A2978 RMK AO2 LTG DSNT SE AND S SLP085 OCNL LTGIC DSNT SE-DSNT S CB DSNT SE-DSNT S MOV E T03000172

KFLL 262253Z 12018KT 7SM -RA BKN015 OVC024 24/24 A2985 RMK AO2 SLP108 P0001 T02440239

KIAD 262252Z 19006KT 10SM FEW030CB BKN090 OVC150 27/23 A2984 RMK AO2 LTG DSNT SE-SW SLP103 CB SE-SW MOV NE T02670233

KIAH 262253Z 00000KT 10SM SCT055 SCT250 34/22 A2974 RMK AO2 LTG DSNT E-S SLP071 CB DSNT SE-S T03390217

KJFK 262251Z 00000KT 10SM FEW065 FEW110 SCT170 BKN250 23/19 A2981 RMK AO2 LTG DSNT S AND SW SLP095 CB DSNT NE AND SW T02280194

KLAS 262256Z 17013G18KT 10SM FEW130 SCT200 27/01 A2975 RMK AO2 SLP053 TCU DSNT N T02670011

KLAX 262253Z 26011KT 10SM SCT028 19/11 A2998 RMK AO2 SLP152 T01940111

KLGA 262251Z 14010KT 10SM FEW060 FEW090 SCT130 BKN250 29/19 A2979 RMK AO2 LTG DSNT S AND SW SLP088 CB DSNT S-SW T02940189

KMCO 262253Z 10009KT 10SM -RA SCT020 SCT070 OVC130 25/22 A2989 RMK AO2 SLP121 P0000 T02500222

KMDW 262253Z 10008KT 10SM FEW070 FEW250 30/16 A2973 RMK AO2 SLP055 CB DSNT SW T03000156

KMEM 262304Z 29005KT 10SM FEW032CB SCT040 BKN250 26/22 A2982 RMK AO2 LTG DSNT NW TSE03 OCNL LTGICCCCG DSNT SW-W CB NE QSTNRY CB DSNT SW-W MOV SW T02560217 $

KMIA 262253Z 10011KT 6SM -RA BR SCT018 BKN075 BKN100 OVC140 24/23 A2985 RMK AO2 SLP108 P0001 T02390233 $

KMSP 262253Z 24009KT 10SM SCT090 34/13 A2969 RMK AO2 SLP045 T03390128

KORD 262251Z 28007KT 10SM FEW070 FEW250 32/15 A2972 RMK AO2 SLP059 T03170150

KPDX 262253Z VRB03KT 10SM SCT045 BKN060 18/07 A3019 RMK AO2 SLP223 T01830072

KPHL 262330Z 19005KT 10SM SCT050TCU SCT090 OVC200 25/20 A2982 RMK AO2 RAB25E30 TSE30 TCU SE P0000 T02500200 $

KPHX 262251Z 25015G23KT 10SM FEW180 SCT250 33/M05 A2974 RMK AO2 SLP050 T03331050

KPIT 262251Z 18005KT 10SM SCT050 BKN080 BKN150 25/18 A2985 RMK AO2 SLP106 T02500178

KSAN 262327Z 25010KT 10SM BKN022 OVC031 18/12 A3001 RMK AO2 T01830117

KSEA 262253Z 28004KT 10SM OVC055 19/06 A3019 RMK AO2 SLP227 T01890061

KSFO 262328Z 25015KT 10SM FEW019 SCT024 SCT033 18/09 A3005 RMK AO2 T01780094

KSLC 262254Z 33017KT 10SM FEW095TCU SCT140 BKN230 28/M04 A2972 RMK VIRGA CB DSNT SE TCU W

KSTL 262251Z 27008KT 10SM SCT050 BKN250 33/21 A2977 RMK AO2 SLP069 ACC N T03280211

KTPA 262337Z 11007KT 10SM -RA FEW012 SCT029TCU BKN055 OVC130 24/22 A2987 RMK AO2 RAB25 TCU N AND W P0000 T02440217